UPLA180 UACC-UNOO
Flight info
| Callsign | UPLA180 |
|---|---|
| Flight time | N/A |
| Altitude | FL120 |
| Route | OLGAS M75 DAKIN R706 ALODA |
| Aircraft | DA42/L-SDFGRY/C |
Departure
| Time | 2026-05-05 14:24 |
|---|---|
| Airport | Nursultan Nazarbayev International Airport (UACC) |
Arrival
| Time | N/A |
|---|---|
| Airport | Omsk Central Airport (UNOO) |
| Time | Latitude | Longitude | Altitude | Speed | Heading |
|---|---|---|---|---|---|
| 2026-05-05 14:10 | 51.02164 | 71.45620 | 1164 ft | 0 kts | 225° |
| 2026-05-05 14:19 | 51.02131 | 71.45603 | 1164 ft | 10 kts | 136° |
| 2026-05-05 14:19 | 51.02044 | 71.45576 | 1164 ft | 16 kts | 154° |
| 2026-05-05 14:19 | 51.01987 | 71.45734 | 1164 ft | 21 kts | 59° |
| 2026-05-05 14:19 | 51.02104 | 71.45921 | 1164 ft | 18 kts | 46° |
| 2026-05-05 14:20 | 51.02204 | 71.46078 | 1163 ft | 22 kts | 46° |
| 2026-05-05 14:20 | 51.02317 | 71.46252 | 1163 ft | 18 kts | 45° |
| 2026-05-05 14:20 | 51.02411 | 71.46401 | 1163 ft | 20 kts | 39° |
| 2026-05-05 14:20 | 51.02513 | 71.46558 | 1164 ft | 21 kts | 45° |
| 2026-05-05 14:21 | 51.02598 | 71.46692 | 1164 ft | 13 kts | 43° |
| 2026-05-05 14:21 | 51.02616 | 71.46767 | 1164 ft | 10 kts | 128° |
| 2026-05-05 14:21 | 51.02570 | 71.46842 | 1164 ft | 0 kts | 135° |
| 2026-05-05 14:22 | 51.02540 | 71.46889 | 1164 ft | 17 kts | 135° |
| 2026-05-05 14:22 | 51.02463 | 71.46943 | 1165 ft | 7 kts | 224° |
| 2026-05-05 14:22 | 51.02462 | 71.46941 | 1164 ft | 0 kts | 224° |
| 2026-05-05 14:23 | 51.02438 | 71.46905 | 1164 ft | 25 kts | 223° |
| 2026-05-05 14:23 | 51.02186 | 71.46515 | 1167 ft | 70 kts | 223° |
| 2026-05-05 14:23 | 51.01830 | 71.45920 | 1352 ft | 79 kts | 222° |
| 2026-05-05 14:23 | 51.01386 | 71.45244 | 1480 ft | 99 kts | 222° |
| 2026-05-05 14:24 | 51.00868 | 71.44451 | 1704 ft | 104 kts | 222° |
| 2026-05-05 14:24 | 51.00366 | 71.43673 | 2045 ft | 96 kts | 223° |
| 2026-05-05 14:24 | 50.99906 | 71.42957 | 2360 ft | 87 kts | 223° |
| 2026-05-05 14:24 | 50.99488 | 71.42304 | 2613 ft | 84 kts | 223° |
| 2026-05-05 14:25 | 50.99063 | 71.41643 | 2816 ft | 87 kts | 223° |
| 2026-05-05 14:25 | 50.98630 | 71.40969 | 3019 ft | 89 kts | 224° |
| 2026-05-05 14:25 | 50.98188 | 71.40281 | 3186 ft | 89 kts | 224° |
| 2026-05-05 14:25 | 50.97749 | 71.39597 | 3345 ft | 89 kts | 224° |
| 2026-05-05 14:26 | 50.97309 | 71.38913 | 3506 ft | 89 kts | 225° |
| 2026-05-05 14:26 | 50.96872 | 71.38233 | 3668 ft | 88 kts | 225° |
| 2026-05-05 14:26 | 50.96433 | 71.37549 | 3822 ft | 89 kts | 225° |
| 2026-05-05 14:26 | 50.95989 | 71.36859 | 3977 ft | 90 kts | 225° |
| 2026-05-05 14:27 | 50.95543 | 71.36165 | 4139 ft | 90 kts | 225° |
| 2026-05-05 14:27 | 50.95098 | 71.35472 | 4312 ft | 90 kts | 225° |
| 2026-05-05 14:27 | 50.94653 | 71.34781 | 4513 ft | 90 kts | 225° |
| 2026-05-05 14:27 | 50.94208 | 71.34088 | 4722 ft | 90 kts | 225° |
| 2026-05-05 14:28 | 50.93753 | 71.33398 | 4920 ft | 91 kts | 221° |
| 2026-05-05 14:28 | 50.93198 | 71.32903 | 5124 ft | 94 kts | 205° |
| 2026-05-05 14:28 | 50.92543 | 71.32739 | 5318 ft | 99 kts | 188° |
| 2026-05-05 14:28 | 50.91852 | 71.32984 | 5518 ft | 107 kts | 168° |
| 2026-05-05 14:29 | 50.91223 | 71.33698 | 5723 ft | 116 kts | 148° |
| 2026-05-05 14:29 | 50.90655 | 71.34610 | 5928 ft | 117 kts | 147° |
| 2026-05-05 14:29 | 50.90086 | 71.35530 | 6132 ft | 117 kts | 147° |
| 2026-05-05 14:29 | 50.89516 | 71.36451 | 6334 ft | 118 kts | 147° |
| 2026-05-05 14:30 | 50.88941 | 71.37379 | 6511 ft | 118 kts | 147° |
| 2026-05-05 14:30 | 50.88363 | 71.38309 | 6670 ft | 119 kts | 147° |
| 2026-05-05 14:30 | 50.87781 | 71.39245 | 6843 ft | 120 kts | 147° |
| 2026-05-05 14:30 | 50.87197 | 71.40186 | 7006 ft | 120 kts | 147° |
| 2026-05-05 14:31 | 50.86673 | 71.41246 | 7176 ft | 129 kts | 127° |
| 2026-05-05 14:31 | 50.86475 | 71.42680 | 7349 ft | 139 kts | 95° |
| 2026-05-05 14:31 | 50.86751 | 71.44162 | 7530 ft | 144 kts | 59° |
| 2026-05-05 14:31 | 50.87412 | 71.45350 | 7721 ft | 145 kts | 43° |
| 2026-05-05 14:32 | 50.88130 | 71.46469 | 7917 ft | 145 kts | 43° |
| 2026-05-05 14:32 | 50.88851 | 71.47589 | 8116 ft | 146 kts | 43° |
| 2026-05-05 14:32 | 50.89571 | 71.48712 | 8308 ft | 146 kts | 43° |
| 2026-05-05 14:32 | 50.90291 | 71.49839 | 8493 ft | 146 kts | 43° |
| 2026-05-05 14:33 | 50.91009 | 71.50966 | 8680 ft | 146 kts | 43° |
| 2026-05-05 14:33 | 50.91726 | 71.52093 | 8883 ft | 146 kts | 43° |
| 2026-05-05 14:33 | 50.92444 | 71.53221 | 9089 ft | 146 kts | 42° |
| 2026-05-05 14:33 | 50.93161 | 71.54349 | 9292 ft | 146 kts | 42° |
| 2026-05-05 14:34 | 50.93877 | 71.55476 | 9501 ft | 145 kts | 42° |
| 2026-05-05 14:34 | 50.94592 | 71.56601 | 9711 ft | 145 kts | 42° |
| 2026-05-05 14:34 | 50.95308 | 71.57728 | 9911 ft | 145 kts | 42° |
| 2026-05-05 14:34 | 50.96025 | 71.58858 | 10087 ft | 146 kts | 42° |
| 2026-05-05 14:35 | 50.96747 | 71.59998 | 10259 ft | 147 kts | 42° |
| 2026-05-05 14:35 | 50.97471 | 71.61138 | 10426 ft | 148 kts | 42° |
| 2026-05-05 14:35 | 50.98200 | 71.62288 | 10592 ft | 149 kts | 42° |
| 2026-05-05 14:35 | 50.98933 | 71.63446 | 10764 ft | 149 kts | 42° |
| 2026-05-05 14:36 | 50.99671 | 71.64611 | 10937 ft | 150 kts | 42° |
| 2026-05-05 14:36 | 51.00411 | 71.65780 | 11113 ft | 151 kts | 42° |
| 2026-05-05 14:36 | 51.01155 | 71.66958 | 11296 ft | 152 kts | 42° |
| 2026-05-05 14:36 | 51.01902 | 71.68138 | 11480 ft | 152 kts | 42° |
| 2026-05-05 14:37 | 51.02651 | 71.69324 | 11659 ft | 153 kts | 42° |
| 2026-05-05 14:37 | 51.03405 | 71.70517 | 11843 ft | 153 kts | 41° |
| 2026-05-05 14:37 | 51.04161 | 71.71714 | 12003 ft | 156 kts | 41° |
| 2026-05-05 14:37 | 51.04964 | 71.72985 | 12007 ft | 169 kts | 42° |
| 2026-05-05 14:38 | 51.05819 | 71.74344 | 12007 ft | 178 kts | 42° |
| 2026-05-05 14:38 | 51.06700 | 71.75745 | 12000 ft | 182 kts | 42° |
| 2026-05-05 14:38 | 51.07600 | 71.77173 | 12001 ft | 184 kts | 42° |
| 2026-05-05 14:38 | 51.08507 | 71.78612 | 12002 ft | 186 kts | 42° |
| 2026-05-05 14:39 | 51.09423 | 71.80066 | 12000 ft | 187 kts | 42° |
| 2026-05-05 14:39 | 51.10346 | 71.81525 | 11999 ft | 188 kts | 41° |
| 2026-05-05 14:39 | 51.11275 | 71.82986 | 12000 ft | 189 kts | 41° |
| 2026-05-05 14:39 | 51.12209 | 71.84455 | 12000 ft | 189 kts | 41° |
| 2026-05-05 14:40 | 51.13141 | 71.85923 | 11999 ft | 189 kts | 41° |
| 2026-05-05 14:40 | 51.14073 | 71.87393 | 11999 ft | 189 kts | 41° |
| 2026-05-05 14:40 | 51.15008 | 71.88866 | 11999 ft | 189 kts | 41° |
| 2026-05-05 14:40 | 51.15941 | 71.90339 | 12000 ft | 189 kts | 41° |
| 2026-05-05 14:41 | 51.16873 | 71.91813 | 11995 ft | 190 kts | 41° |
| 2026-05-05 14:41 | 51.17808 | 71.93290 | 11995 ft | 189 kts | 41° |
| 2026-05-05 14:41 | 51.18742 | 71.94767 | 11994 ft | 190 kts | 41° |
| 2026-05-05 14:41 | 51.19674 | 71.96242 | 11994 ft | 190 kts | 42° |
| 2026-05-05 14:42 | 51.20652 | 71.97632 | 11987 ft | 187 kts | 28° |
| 2026-05-05 14:42 | 51.21819 | 71.98398 | 11988 ft | 178 kts | 3° |
| 2026-05-05 14:42 | 51.23016 | 71.98433 | 11989 ft | 169 kts | 342° |
| 2026-05-05 14:42 | 51.24173 | 71.98137 | 11991 ft | 168 kts | 341° |
| 2026-05-05 14:43 | 51.25325 | 71.97826 | 11990 ft | 168 kts | 341° |
| 2026-05-05 14:43 | 51.26480 | 71.97514 | 11990 ft | 168 kts | 341° |
| 2026-05-05 14:43 | 51.27633 | 71.97204 | 11988 ft | 168 kts | 341° |
| 2026-05-05 14:43 | 51.28787 | 71.96897 | 11988 ft | 169 kts | 341° |
| 2026-05-05 14:44 | 51.29942 | 71.96588 | 11987 ft | 169 kts | 341° |
| 2026-05-05 14:44 | 51.31098 | 71.96279 | 11986 ft | 169 kts | 341° |
| 2026-05-05 14:44 | 51.32254 | 71.95970 | 11987 ft | 169 kts | 341° |
| 2026-05-05 14:44 | 51.33410 | 71.95660 | 11987 ft | 169 kts | 341° |
| 2026-05-05 14:45 | 51.34566 | 71.95351 | 11988 ft | 169 kts | 341° |
| 2026-05-05 14:45 | 51.35723 | 71.95041 | 11988 ft | 169 kts | 341° |
| 2026-05-05 14:45 | 51.36878 | 71.94731 | 11983 ft | 169 kts | 341° |
| 2026-05-05 14:45 | 51.38035 | 71.94422 | 11983 ft | 168 kts | 341° |
| 2026-05-05 14:46 | 51.39185 | 71.94114 | 11981 ft | 168 kts | 341° |
| 2026-05-05 14:46 | 51.40332 | 71.93805 | 11981 ft | 167 kts | 341° |
| 2026-05-05 14:46 | 51.41476 | 71.93497 | 11981 ft | 167 kts | 341° |
| 2026-05-05 14:46 | 51.42619 | 71.93190 | 11981 ft | 167 kts | 341° |
| 2026-05-05 14:47 | 51.43763 | 71.92883 | 11981 ft | 167 kts | 341° |
| 2026-05-05 14:47 | 51.44902 | 71.92577 | 11981 ft | 167 kts | 341° |
| 2026-05-05 14:47 | 51.46043 | 71.92270 | 11973 ft | 166 kts | 341° |
| 2026-05-05 14:47 | 51.47183 | 71.91963 | 11973 ft | 166 kts | 341° |
| 2026-05-05 14:48 | 51.48324 | 71.91656 | 11975 ft | 166 kts | 341° |
| 2026-05-05 14:48 | 51.49461 | 71.91349 | 11975 ft | 166 kts | 341° |
| 2026-05-05 14:48 | 51.50603 | 71.91042 | 11975 ft | 166 kts | 341° |
| 2026-05-05 14:48 | 51.51739 | 71.90736 | 11975 ft | 166 kts | 341° |
| 2026-05-05 14:49 | 51.52881 | 71.90428 | 11976 ft | 166 kts | 341° |
| 2026-05-05 14:49 | 51.54020 | 71.90120 | 11976 ft | 166 kts | 341° |
| 2026-05-05 14:49 | 51.55160 | 71.89812 | 11976 ft | 166 kts | 341° |
| 2026-05-05 14:49 | 51.56300 | 71.89507 | 11971 ft | 166 kts | 340° |
| 2026-05-05 14:50 | 51.57438 | 71.89197 | 11974 ft | 167 kts | 340° |
| 2026-05-05 14:50 | 51.58581 | 71.88885 | 11974 ft | 167 kts | 340° |
| 2026-05-05 14:50 | 51.59722 | 71.88576 | 11974 ft | 167 kts | 340° |
| 2026-05-05 14:50 | 51.60865 | 71.88267 | 11975 ft | 167 kts | 340° |
| 2026-05-05 14:51 | 51.62006 | 71.87959 | 11974 ft | 166 kts | 340° |
| 2026-05-05 14:51 | 51.63144 | 71.87651 | 11974 ft | 166 kts | 340° |
| 2026-05-05 14:51 | 51.64279 | 71.87343 | 11973 ft | 166 kts | 340° |
| 2026-05-05 14:51 | 51.65409 | 71.87036 | 11970 ft | 165 kts | 340° |
| 2026-05-05 14:52 | 51.66540 | 71.86729 | 11966 ft | 165 kts | 340° |
| 2026-05-05 14:52 | 51.67670 | 71.86422 | 11965 ft | 165 kts | 340° |
| 2026-05-05 14:52 | 51.68796 | 71.86116 | 11965 ft | 164 kts | 340° |
| 2026-05-05 14:52 | 51.69920 | 71.85810 | 11965 ft | 164 kts | 340° |
| 2026-05-05 14:53 | 51.71041 | 71.85505 | 11968 ft | 164 kts | 340° |
| 2026-05-05 14:53 | 51.72161 | 71.85200 | 11968 ft | 164 kts | 340° |
| 2026-05-05 14:53 | 51.73285 | 71.84893 | 11967 ft | 164 kts | 340° |
| 2026-05-05 14:53 | 51.74410 | 71.84587 | 11956 ft | 164 kts | 340° |
| 2026-05-05 14:54 | 51.75529 | 71.84283 | 11961 ft | 164 kts | 340° |
| 2026-05-05 14:54 | 51.76653 | 71.83976 | 11961 ft | 164 kts | 340° |
| 2026-05-05 14:54 | 51.77772 | 71.83671 | 11961 ft | 164 kts | 340° |
| 2026-05-05 14:54 | 51.78893 | 71.83364 | 11961 ft | 164 kts | 340° |
| 2026-05-05 14:55 | 51.80018 | 71.83057 | 11957 ft | 164 kts | 340° |
| 2026-05-05 14:55 | 51.81141 | 71.82751 | 11960 ft | 164 kts | 340° |
| 2026-05-05 14:55 | 51.82263 | 71.82444 | 11960 ft | 164 kts | 340° |
| 2026-05-05 14:55 | 51.83387 | 71.82136 | 11959 ft | 164 kts | 340° |
| 2026-05-05 14:56 | 51.84515 | 71.81827 | 11958 ft | 165 kts | 340° |
| 2026-05-05 14:56 | 51.85643 | 71.81518 | 11959 ft | 165 kts | 340° |
| 2026-05-05 14:56 | 51.86772 | 71.81209 | 11960 ft | 165 kts | 340° |
| 2026-05-05 14:56 | 51.87901 | 71.80900 | 11959 ft | 165 kts | 340° |
| 2026-05-05 14:57 | 51.89032 | 71.80590 | 11958 ft | 165 kts | 340° |
| 2026-05-05 14:57 | 51.90157 | 71.80281 | 11958 ft | 165 kts | 340° |
| 2026-05-05 14:57 | 51.91284 | 71.79972 | 11958 ft | 165 kts | 340° |
| 2026-05-05 14:57 | 51.92412 | 71.79663 | 11957 ft | 164 kts | 340° |
| 2026-05-05 14:58 | 51.93537 | 71.79353 | 11945 ft | 164 kts | 340° |
| 2026-05-05 14:58 | 51.94662 | 71.79043 | 11946 ft | 164 kts | 340° |
| 2026-05-05 14:58 | 51.95784 | 71.78734 | 11946 ft | 164 kts | 340° |
| 2026-05-05 14:58 | 51.96906 | 71.78425 | 11945 ft | 164 kts | 340° |
| 2026-05-05 14:59 | 51.98029 | 71.78116 | 11947 ft | 164 kts | 340° |
| 2026-05-05 14:59 | 51.99152 | 71.77807 | 11947 ft | 164 kts | 340° |
| 2026-05-05 14:59 | 52.00271 | 71.77500 | 11947 ft | 163 kts | 340° |
| 2026-05-05 14:59 | 52.01388 | 71.77192 | 11947 ft | 163 kts | 339° |
| 2026-05-05 15:00 | 52.02507 | 71.76883 | 11947 ft | 164 kts | 339° |
| 2026-05-05 15:00 | 52.03255 | 71.76676 | 11939 ft | 164 kts | 340° |
| 2026-05-05 15:00 | 52.04753 | 71.76262 | 11940 ft | 164 kts | 339° |
| 2026-05-05 15:00 | 52.05880 | 71.75950 | 11940 ft | 165 kts | 339° |
| 2026-05-05 15:01 | 52.07006 | 71.75638 | 11939 ft | 165 kts | 340° |
| 2026-05-05 15:01 | 52.08133 | 71.75332 | 11940 ft | 167 kts | 341° |
| 2026-05-05 15:01 | 52.09331 | 71.75405 | 11941 ft | 178 kts | 360° |
| 2026-05-05 15:01 | 52.10549 | 71.75763 | 11942 ft | 178 kts | 1° |
| 2026-05-05 15:02 | 52.11765 | 71.76137 | 11944 ft | 178 kts | 1° |
| 2026-05-05 15:02 | 52.12981 | 71.76506 | 11939 ft | 178 kts | 1° |
| 2026-05-05 15:02 | 52.14199 | 71.76873 | 11939 ft | 179 kts | 1° |
| 2026-05-05 15:02 | 52.15417 | 71.77240 | 11944 ft | 179 kts | 1° |
| 2026-05-05 15:03 | 52.16639 | 71.77608 | 11939 ft | 179 kts | 1° |
| 2026-05-05 15:03 | 52.17864 | 71.77977 | 11939 ft | 179 kts | 1° |
| 2026-05-05 15:03 | 52.19086 | 71.78346 | 11937 ft | 179 kts | 1° |
| 2026-05-05 15:03 | 52.20305 | 71.78713 | 11937 ft | 178 kts | 1° |
| 2026-05-05 15:04 | 52.21520 | 71.79080 | 11938 ft | 178 kts | 1° |
| 2026-05-05 15:04 | 52.22732 | 71.79446 | 11937 ft | 178 kts | 1° |
| 2026-05-05 15:04 | 52.23944 | 71.79813 | 11931 ft | 177 kts | 1° |
| 2026-05-05 15:04 | 52.25154 | 71.80179 | 11930 ft | 177 kts | 1° |
| 2026-05-05 15:05 | 52.27566 | 71.80908 | 11925 ft | 176 kts | 1° |
| 2026-05-05 15:05 | 52.28364 | 71.81150 | 11925 ft | 176 kts | 1° |